sensor_id;sensor_type;location;lat;lon;timestamp;P1;durP1;ratioP1;P2;durP2;ratioP2
21894;SDS011;11112;51.270;7.224;2022-07-06T00:00:02;5.15;;;1.30;;
21894;SDS011;11112;51.270;7.224;2022-07-06T00:02:31;4.25;;;1.10;;
21894;SDS011;11112;51.270;7.224;2022-07-06T00:04:58;5.22;;;1.17;;
21894;SDS011;11112;51.270;7.224;2022-07-06T00:07:25;5.22;;;1.30;;
21894;SDS011;11112;51.270;7.224;2022-07-06T00:09:52;4.35;;;1.20;;
21894;SDS011;11112;51.270;7.224;2022-07-06T00:12:19;5.53;;;1.27;;
21894;SDS011;11112;51.270;7.224;2022-07-06T00:14:46;4.68;;;1.30;;
21894;SDS011;11112;51.270;7.224;2022-07-06T00:17:15;4.72;;;1.30;;
21894;SDS011;11112;51.270;7.224;2022-07-06T00:19:42;3.45;;;1.00;;
21894;SDS011;11112;51.270;7.224;2022-07-06T00:22:09;3.90;;;1.10;;
21894;SDS011;11112;51.270;7.224;2022-07-06T00:24:36;4.78;;;1.20;;
21894;SDS011;11112;51.270;7.224;2022-07-06T00:27:03;5.05;;;1.20;;
21894;SDS011;11112;51.270;7.224;2022-07-06T00:29:31;3.25;;;1.30;;
21894;SDS011;11112;51.270;7.224;2022-07-06T00:31:58;5.88;;;1.27;;
21894;SDS011;11112;51.270;7.224;2022-07-06T00:34:26;4.05;;;1.10;;
21894;SDS011;11112;51.270;7.224;2022-07-06T00:36:53;3.95;;;1.20;;
21894;SDS011;11112;51.270;7.224;2022-07-06T00:39:20;3.53;;;1.40;;
21894;SDS011;11112;51.270;7.224;2022-07-06T00:41:54;3.22;;;1.30;;
21894;SDS011;11112;51.270;7.224;2022-07-06T00:44:21;5.65;;;1.10;;
21894;SDS011;11112;51.270;7.224;2022-07-06T00:46:48;3.53;;;1.13;;
21894;SDS011;11112;51.270;7.224;2022-07-06T00:49:16;3.92;;;1.02;;
21894;SDS011;11112;51.270;7.224;2022-07-06T00:51:58;4.43;;;1.10;;
21894;SDS011;11112;51.270;7.224;2022-07-06T00:54:26;2.40;;;1.17;;
21894;SDS011;11112;51.270;7.224;2022-07-06T00:56:56;5.80;;;1.20;;
21894;SDS011;11112;51.270;7.224;2022-07-06T00:59:24;3.50;;;1.00;;
21894;SDS011;11112;51.270;7.224;2022-07-06T01:01:51;2.55;;;1.00;;
21894;SDS011;11112;51.270;7.224;2022-07-06T01:04:18;3.92;;;0.95;;
21894;SDS011;11112;51.270;7.224;2022-07-06T01:06:45;4.10;;;1.33;;
21894;SDS011;11112;51.270;7.224;2022-07-06T01:09:14;5.40;;;1.20;;
21894;SDS011;11112;51.270;7.224;2022-07-06T01:11:42;3.53;;;1.00;;
21894;SDS011;11112;51.270;7.224;2022-07-06T01:14:10;5.88;;;1.35;;
21894;SDS011;11112;51.270;7.224;2022-07-06T01:16:38;5.15;;;1.23;;
21894;SDS011;11112;51.270;7.224;2022-07-06T01:19:05;4.32;;;1.40;;
21894;SDS011;11112;51.270;7.224;2022-07-06T01:21:36;2.97;;;1.08;;
21894;SDS011;11112;51.270;7.224;2022-07-06T01:24:04;5.07;;;1.35;;
21894;SDS011;11112;51.270;7.224;2022-07-06T01:26:32;5.13;;;1.20;;
21894;SDS011;11112;51.270;7.224;2022-07-06T01:28:59;5.97;;;1.25;;
21894;SDS011;11112;51.270;7.224;2022-07-06T01:31:27;5.70;;;1.30;;
21894;SDS011;11112;51.270;7.224;2022-07-06T01:33:54;4.65;;;1.58;;
21894;SDS011;11112;51.270;7.224;2022-07-06T01:36:22;4.20;;;1.20;;
21894;SDS011;11112;51.270;7.224;2022-07-06T01:38:51;3.40;;;1.40;;
21894;SDS011;11112;51.270;7.224;2022-07-06T01:41:20;5.95;;;1.40;;
21894;SDS011;11112;51.270;7.224;2022-07-06T01:43:47;4.00;;;1.30;;
21894;SDS011;11112;51.270;7.224;2022-07-06T01:46:14;4.65;;;1.48;;
21894;SDS011;11112;51.270;7.224;2022-07-06T01:48:43;4.55;;;1.58;;
21894;SDS011;11112;51.270;7.224;2022-07-06T01:51:10;3.88;;;1.30;;
21894;SDS011;11112;51.270;7.224;2022-07-06T01:53:38;5.03;;;1.50;;
21894;SDS011;11112;51.270;7.224;2022-07-06T01:56:07;5.10;;;1.48;;
21894;SDS011;11112;51.270;7.224;2022-07-06T01:58:35;3.80;;;1.30;;
21894;SDS011;11112;51.270;7.224;2022-07-06T02:01:07;3.40;;;1.25;;
21894;SDS011;11112;51.270;7.224;2022-07-06T02:03:35;5.35;;;1.40;;
21894;SDS011;11112;51.270;7.224;2022-07-06T02:06:03;4.60;;;1.40;;
21894;SDS011;11112;51.270;7.224;2022-07-06T02:08:31;4.53;;;1.30;;
21894;SDS011;11112;51.270;7.224;2022-07-06T02:10:58;3.55;;;1.20;;
21894;SDS011;11112;51.270;7.224;2022-07-06T02:13:27;2.97;;;1.27;;
21894;SDS011;11112;51.270;7.224;2022-07-06T02:15:55;3.28;;;1.30;;
21894;SDS011;11112;51.270;7.224;2022-07-06T02:18:22;1.98;;;1.10;;
21894;SDS011;11112;51.270;7.224;2022-07-06T02:20:49;2.55;;;1.10;;
21894;SDS011;11112;51.270;7.224;2022-07-06T02:23:16;2.90;;;1.25;;
21894;SDS011;11112;51.270;7.224;2022-07-06T02:25:43;5.38;;;1.42;;
21894;SDS011;11112;51.270;7.224;2022-07-06T02:28:10;4.63;;;1.23;;
21894;SDS011;11112;51.270;7.224;2022-07-06T02:30:39;3.38;;;1.15;;
21894;SDS011;11112;51.270;7.224;2022-07-06T02:33:06;3.28;;;1.10;;
21894;SDS011;11112;51.270;7.224;2022-07-06T02:35:33;4.38;;;1.45;;
21894;SDS011;11112;51.270;7.224;2022-07-06T02:38:02;4.97;;;1.60;;
21894;SDS011;11112;51.270;7.224;2022-07-06T02:40:29;3.50;;;1.40;;
21894;SDS011;11112;51.270;7.224;2022-07-06T02:42:56;6.70;;;2.20;;
21894;SDS011;11112;51.270;7.224;2022-07-06T02:45:24;5.78;;;2.08;;
21894;SDS011;11112;51.270;7.224;2022-07-06T02:47:52;6.55;;;2.10;;
21894;SDS011;11112;51.270;7.224;2022-07-06T02:50:21;6.95;;;1.88;;
21894;SDS011;11112;51.270;7.224;2022-07-06T02:52:48;4.45;;;1.70;;
21894;SDS011;11112;51.270;7.224;2022-07-06T02:55:15;6.47;;;2.35;;
21894;SDS011;11112;51.270;7.224;2022-07-06T02:57:42;5.35;;;1.90;;
21894;SDS011;11112;51.270;7.224;2022-07-06T03:00:10;8.55;;;4.20;;
21894;SDS011;11112;51.270;7.224;2022-07-06T03:02:38;7.63;;;2.67;;
21894;SDS011;11112;51.270;7.224;2022-07-06T03:05:07;7.30;;;2.50;;
21894;SDS011;11112;51.270;7.224;2022-07-06T03:07:34;6.53;;;3.33;;
21894;SDS011;11112;51.270;7.224;2022-07-06T03:10:02;8.57;;;3.30;;
21894;SDS011;11112;51.270;7.224;2022-07-06T03:12:29;7.05;;;3.10;;
21894;SDS011;11112;51.270;7.224;2022-07-06T03:14:57;7.30;;;3.10;;
21894;SDS011;11112;51.270;7.224;2022-07-06T03:17:24;10.18;;;3.50;;
21894;SDS011;11112;51.270;7.224;2022-07-06T03:19:51;9.38;;;3.50;;
21894;SDS011;11112;51.270;7.224;2022-07-06T03:22:19;10.05;;;3.20;;
21894;SDS011;11112;51.270;7.224;2022-07-06T03:24:46;10.40;;;3.22;;
21894;SDS011;11112;51.270;7.224;2022-07-06T03:27:16;11.23;;;3.95;;
21894;SDS011;11112;51.270;7.224;2022-07-06T03:29:43;9.90;;;3.60;;
21894;SDS011;11112;51.270;7.224;2022-07-06T03:32:10;10.05;;;3.67;;
21894;SDS011;11112;51.270;7.224;2022-07-06T03:34:37;10.80;;;3.88;;
21894;SDS011;11112;51.270;7.224;2022-07-06T03:37:04;9.27;;;4.10;;
21894;SDS011;11112;51.270;7.224;2022-07-06T03:39:33;8.45;;;3.67;;
21894;SDS011;11112;51.270;7.224;2022-07-06T03:42:00;12.95;;;4.53;;
21894;SDS011;11112;51.270;7.224;2022-07-06T03:44:28;12.73;;;4.25;;
21894;SDS011;11112;51.270;7.224;2022-07-06T03:46:55;10.38;;;4.32;;
21894;SDS011;11112;51.270;7.224;2022-07-06T03:49:22;13.02;;;4.30;;
21894;SDS011;11112;51.270;7.224;2022-07-06T03:51:52;12.32;;;4.20;;
21894;SDS011;11112;51.270;7.224;2022-07-06T03:54:19;11.27;;;4.05;;
21894;SDS011;11112;51.270;7.224;2022-07-06T03:56:47;10.68;;;3.80;;
21894;SDS011;11112;51.270;7.224;2022-07-06T03:59:14;11.20;;;4.38;;
21894;SDS011;11112;51.270;7.224;2022-07-06T04:01:42;12.82;;;4.30;;
21894;SDS011;11112;51.270;7.224;2022-07-06T04:04:09;11.05;;;4.10;;
21894;SDS011;11112;51.270;7.224;2022-07-06T04:06:36;10.55;;;3.95;;
21894;SDS011;11112;51.270;7.224;2022-07-06T04:09:03;15.40;;;4.53;;
21894;SDS011;11112;51.270;7.224;2022-07-06T04:11:30;11.23;;;4.38;;
21894;SDS011;11112;51.270;7.224;2022-07-06T04:13:59;9.30;;;3.42;;
21894;SDS011;11112;51.270;7.224;2022-07-06T04:16:26;12.20;;;3.55;;
21894;SDS011;11112;51.270;7.224;2022-07-06T04:18:53;10.02;;;3.60;;
21894;SDS011;11112;51.270;7.224;2022-07-06T04:21:20;9.88;;;3.85;;
21894;SDS011;11112;51.270;7.224;2022-07-06T04:23:48;10.75;;;3.65;;
21894;SDS011;11112;51.270;7.224;2022-07-06T04:26:15;11.00;;;3.42;;
21894;SDS011;11112;51.270;7.224;2022-07-06T04:28:42;10.27;;;3.35;;
21894;SDS011;11112;51.270;7.224;2022-07-06T04:31:10;8.43;;;3.40;;
21894;SDS011;11112;51.270;7.224;2022-07-06T04:33:40;9.05;;;3.60;;
21894;SDS011;11112;51.270;7.224;2022-07-06T04:36:07;8.48;;;3.22;;
21894;SDS011;11112;51.270;7.224;2022-07-06T04:38:35;10.45;;;3.63;;
21894;SDS011;11112;51.270;7.224;2022-07-06T04:41:02;12.52;;;3.40;;
21894;SDS011;11112;51.270;7.224;2022-07-06T04:43:30;11.30;;;3.50;;
21894;SDS011;11112;51.270;7.224;2022-07-06T04:45:57;11.93;;;3.20;;
21894;SDS011;11112;51.270;7.224;2022-07-06T04:48:27;9.60;;;3.58;;
21894;SDS011;11112;51.270;7.224;2022-07-06T04:50:54;9.50;;;3.17;;
21894;SDS011;11112;51.270;7.224;2022-07-06T04:53:21;12.27;;;3.30;;
21894;SDS011;11112;51.270;7.224;2022-07-06T04:55:48;8.10;;;3.17;;
21894;SDS011;11112;51.270;7.224;2022-07-06T04:58:16;10.50;;;3.28;;
21894;SDS011;11112;51.270;7.224;2022-07-06T05:00:43;13.40;;;3.25;;
21894;SDS011;11112;51.270;7.224;2022-07-06T05:03:10;12.10;;;3.38;;
21894;SDS011;11112;51.270;7.224;2022-07-06T05:05:38;8.38;;;3.47;;
21894;SDS011;11112;51.270;7.224;2022-07-06T05:08:06;8.07;;;2.95;;
21894;SDS011;11112;51.270;7.224;2022-07-06T05:10:33;7.22;;;2.97;;
21894;SDS011;11112;51.270;7.224;2022-07-06T05:13:00;10.57;;;3.00;;
21894;SDS011;11112;51.270;7.224;2022-07-06T05:15:27;8.73;;;3.20;;
21894;SDS011;11112;51.270;7.224;2022-07-06T05:17:55;8.32;;;3.25;;
21894;SDS011;11112;51.270;7.224;2022-07-06T05:20:22;10.88;;;2.85;;
21894;SDS011;11112;51.270;7.224;2022-07-06T05:22:51;11.70;;;3.30;;
21894;SDS011;11112;51.270;7.224;2022-07-06T05:25:18;7.18;;;2.75;;
21894;SDS011;11112;51.270;7.224;2022-07-06T05:27:46;10.75;;;3.22;;
21894;SDS011;11112;51.270;7.224;2022-07-06T05:30:13;10.13;;;2.78;;
21894;SDS011;11112;51.270;7.224;2022-07-06T05:32:41;13.73;;;3.78;;
21894;SDS011;11112;51.270;7.224;2022-07-06T05:35:08;10.40;;;3.40;;
21894;SDS011;11112;51.270;7.224;2022-07-06T05:37:35;10.38;;;3.38;;
21894;SDS011;11112;51.270;7.224;2022-07-06T05:40:04;12.05;;;3.00;;
21894;SDS011;11112;51.270;7.224;2022-07-06T05:42:32;10.27;;;3.00;;
21894;SDS011;11112;51.270;7.224;2022-07-06T05:44:59;9.32;;;3.20;;
21894;SDS011;11112;51.270;7.224;2022-07-06T05:47:28;9.35;;;2.72;;
21894;SDS011;11112;51.270;7.224;2022-07-06T05:50:12;11.60;;;2.95;;
21894;SDS011;11112;51.270;7.224;2022-07-06T05:52:40;8.88;;;2.75;;
21894;SDS011;11112;51.270;7.224;2022-07-06T05:55:11;6.78;;;2.50;;
21894;SDS011;11112;51.270;7.224;2022-07-06T05:57:38;9.63;;;2.67;;
21894;SDS011;11112;51.270;7.224;2022-07-06T06:00:06;13.95;;;2.45;;
21894;SDS011;11112;51.270;7.224;2022-07-06T06:02:38;9.35;;;2.50;;
21894;SDS011;11112;51.270;7.224;2022-07-06T06:05:06;9.55;;;2.35;;
21894;SDS011;11112;51.270;7.224;2022-07-06T06:07:35;10.05;;;2.30;;
21894;SDS011;11112;51.270;7.224;2022-07-06T06:10:04;9.20;;;2.60;;
21894;SDS011;11112;51.270;7.224;2022-07-06T06:12:35;11.85;;;2.40;;
21894;SDS011;11112;51.270;7.224;2022-07-06T06:26:03;8.95;;;2.35;;
21894;SDS011;11112;51.270;7.224;2022-07-06T06:28:40;8.82;;;2.28;;
21894;SDS011;11112;51.270;7.224;2022-07-06T06:31:08;9.63;;;2.58;;
21894;SDS011;11112;51.270;7.224;2022-07-06T06:33:35;8.75;;;2.75;;
21894;SDS011;11112;51.270;7.224;2022-07-06T06:43:23;9.23;;;2.17;;
21894;SDS011;11112;51.270;7.224;2022-07-06T06:45:52;9.93;;;2.42;;
21894;SDS011;11112;51.270;7.224;2022-07-06T06:48:19;9.07;;;2.47;;
21894;SDS011;11112;51.270;7.224;2022-07-06T06:50:46;15.88;;;2.40;;
21894;SDS011;11112;51.270;7.224;2022-07-06T06:53:13;9.13;;;2.78;;
21894;SDS011;11112;51.270;7.224;2022-07-06T06:55:41;9.88;;;2.53;;
21894;SDS011;11112;51.270;7.224;2022-07-06T06:58:08;7.78;;;2.25;;
21894;SDS011;11112;51.270;7.224;2022-07-06T07:00:35;8.10;;;2.10;;
21894;SDS011;11112;51.270;7.224;2022-07-06T07:03:03;8.63;;;2.10;;
21894;SDS011;11112;51.270;7.224;2022-07-06T07:05:31;8.52;;;2.17;;
21894;SDS011;11112;51.270;7.224;2022-07-06T07:08:00;6.38;;;1.88;;
21894;SDS011;11112;51.270;7.224;2022-07-06T07:10:28;7.95;;;1.70;;
21894;SDS011;11112;51.270;7.224;2022-07-06T07:12:56;9.30;;;2.03;;
21894;SDS011;11112;51.270;7.224;2022-07-06T07:15:24;7.25;;;2.00;;
21894;SDS011;11112;51.270;7.224;2022-07-06T07:17:52;8.50;;;1.90;;
21894;SDS011;11112;51.270;7.224;2022-07-06T07:20:21;8.88;;;2.00;;
21894;SDS011;11112;51.270;7.224;2022-07-06T07:22:48;10.60;;;1.88;;
21894;SDS011;11112;51.270;7.224;2022-07-06T07:25:15;8.18;;;1.92;;
21894;SDS011;11112;51.270;7.224;2022-07-06T07:27:43;7.68;;;1.90;;
21894;SDS011;11112;51.270;7.224;2022-07-06T07:30:10;9.63;;;2.55;;
21894;SDS011;11112;51.270;7.224;2022-07-06T07:32:38;7.68;;;2.25;;
21894;SDS011;11112;51.270;7.224;2022-07-06T07:35:06;7.90;;;2.40;;
21894;SDS011;11112;51.270;7.224;2022-07-06T07:37:34;6.00;;;2.25;;
21894;SDS011;11112;51.270;7.224;2022-07-06T07:40:02;8.63;;;2.10;;
21894;SDS011;11112;51.270;7.224;2022-07-06T07:42:31;5.72;;;1.90;;
21894;SDS011;11112;51.270;7.224;2022-07-06T07:44:58;8.30;;;1.80;;
21894;SDS011;11112;51.270;7.224;2022-07-06T07:47:26;10.02;;;1.77;;
21894;SDS011;11112;51.270;7.224;2022-07-06T07:49:53;8.32;;;2.10;;
21894;SDS011;11112;51.270;7.224;2022-07-06T07:52:20;7.40;;;2.28;;
21894;SDS011;11112;51.270;7.224;2022-07-06T07:54:48;7.80;;;2.53;;
21894;SDS011;11112;51.270;7.224;2022-07-06T07:57:16;10.60;;;2.90;;
21894;SDS011;11112;51.270;7.224;2022-07-06T07:59:43;11.02;;;3.20;;
21894;SDS011;11112;51.270;7.224;2022-07-06T08:02:10;10.07;;;3.17;;
21894;SDS011;11112;51.270;7.224;2022-07-06T08:04:37;10.73;;;3.00;;
21894;SDS011;11112;51.270;7.224;2022-07-06T08:07:05;9.07;;;3.15;;
21894;SDS011;11112;51.270;7.224;2022-07-06T08:09:32;11.25;;;3.38;;
21894;SDS011;11112;51.270;7.224;2022-07-06T08:12:01;8.02;;;3.03;;
21894;SDS011;11112;51.270;7.224;2022-07-06T08:14:28;9.02;;;3.35;;
21894;SDS011;11112;51.270;7.224;2022-07-06T08:16:56;11.90;;;3.08;;
21894;SDS011;11112;51.270;7.224;2022-07-06T08:19:23;11.88;;;3.05;;
21894;SDS011;11112;51.270;7.224;2022-07-06T08:21:51;8.32;;;2.55;;
21894;SDS011;11112;51.270;7.224;2022-07-06T08:24:18;6.68;;;3.00;;
21894;SDS011;11112;51.270;7.224;2022-07-06T08:26:45;9.27;;;2.50;;
21894;SDS011;11112;51.270;7.224;2022-07-06T08:29:14;8.82;;;2.20;;
21894;SDS011;11112;51.270;7.224;2022-07-06T08:31:41;5.97;;;2.35;;
21894;SDS011;11112;51.270;7.224;2022-07-06T08:34:08;8.68;;;2.53;;
21894;SDS011;11112;51.270;7.224;2022-07-06T08:36:36;7.88;;;2.30;;
21894;SDS011;11112;51.270;7.224;2022-07-06T08:39:03;9.35;;;2.38;;
21894;SDS011;11112;51.270;7.224;2022-07-06T08:41:30;8.45;;;2.25;;
21894;SDS011;11112;51.270;7.224;2022-07-06T08:43:57;7.22;;;2.10;;
21894;SDS011;11112;51.270;7.224;2022-07-06T08:46:26;5.90;;;1.90;;
21894;SDS011;11112;51.270;7.224;2022-07-06T08:48:55;6.85;;;1.60;;
21894;SDS011;11112;51.270;7.224;2022-07-06T08:51:24;6.20;;;1.73;;
21894;SDS011;11112;51.270;7.224;2022-07-06T08:53:51;5.82;;;1.25;;
21894;SDS011;11112;51.270;7.224;2022-07-06T08:56:21;7.63;;;1.40;;
21894;SDS011;11112;51.270;7.224;2022-07-06T08:58:48;8.77;;;1.30;;
21894;SDS011;11112;51.270;7.224;2022-07-06T09:01:16;8.65;;;1.35;;
21894;SDS011;11112;51.270;7.224;2022-07-06T09:03:45;7.43;;;1.40;;
21894;SDS011;11112;51.270;7.224;2022-07-06T09:06:15;5.65;;;1.50;;
21894;SDS011;11112;51.270;7.224;2022-07-06T09:08:51;4.50;;;1.20;;
21894;SDS011;11112;51.270;7.224;2022-07-06T09:11:22;6.38;;;1.40;;
21894;SDS011;11112;51.270;7.224;2022-07-06T09:13:50;7.82;;;1.10;;
21894;SDS011;11112;51.270;7.224;2022-07-06T09:16:20;7.60;;;1.15;;
21894;SDS011;11112;51.270;7.224;2022-07-06T09:18:54;7.75;;;1.30;;
21894;SDS011;11112;51.270;7.224;2022-07-06T09:21:22;6.68;;;1.40;;
21894;SDS011;11112;51.270;7.224;2022-07-06T09:23:53;10.52;;;1.20;;
21894;SDS011;11112;51.270;7.224;2022-07-06T09:26:21;6.40;;;0.70;;
21894;SDS011;11112;51.270;7.224;2022-07-06T09:28:48;3.42;;;0.82;;
21894;SDS011;11112;51.270;7.224;2022-07-06T09:31:16;2.78;;;0.90;;
21894;SDS011;11112;51.270;7.224;2022-07-06T09:33:54;16.48;;;1.23;;
21894;SDS011;11112;51.270;7.224;2022-07-06T09:36:37;5.00;;;0.80;;
21894;SDS011;11112;51.270;7.224;2022-07-06T09:39:16;3.78;;;0.70;;
21894;SDS011;11112;51.270;7.224;2022-07-06T09:41:46;3.63;;;0.60;;
21894;SDS011;11112;51.270;7.224;2022-07-06T09:44:18;2.85;;;0.82;;
21894;SDS011;11112;51.270;7.224;2022-07-06T09:46:48;2.15;;;0.70;;
21894;SDS011;11112;51.270;7.224;2022-07-06T09:49:20;4.00;;;0.80;;
21894;SDS011;11112;51.270;7.224;2022-07-06T09:51:50;2.40;;;0.52;;
21894;SDS011;11112;51.270;7.224;2022-07-06T09:54:23;4.72;;;1.00;;
21894;SDS011;11112;51.270;7.224;2022-07-06T09:56:50;5.55;;;0.80;;
21894;SDS011;11112;51.270;7.224;2022-07-06T09:59:19;6.68;;;0.70;;
21894;SDS011;11112;51.270;7.224;2022-07-06T10:01:50;2.75;;;0.68;;
21894;SDS011;11112;51.270;7.224;2022-07-06T10:04:20;8.43;;;0.88;;
21894;SDS011;11112;51.270;7.224;2022-07-06T10:06:49;5.28;;;0.82;;
21894;SDS011;11112;51.270;7.224;2022-07-06T10:09:18;15.75;;;1.55;;
21894;SDS011;11112;51.270;7.224;2022-07-06T10:11:48;10.32;;;1.10;;
21894;SDS011;11112;51.270;7.224;2022-07-06T10:14:18;4.60;;;0.70;;
21894;SDS011;11112;51.270;7.224;2022-07-06T10:16:48;5.72;;;0.90;;
21894;SDS011;11112;51.270;7.224;2022-07-06T10:19:17;6.05;;;1.05;;
21894;SDS011;11112;51.270;7.224;2022-07-06T10:21:47;3.72;;;0.70;;
21894;SDS011;11112;51.270;7.224;2022-07-06T10:24:16;2.95;;;0.90;;
21894;SDS011;11112;51.270;7.224;2022-07-06T10:26:46;3.25;;;0.80;;
21894;SDS011;11112;51.270;7.224;2022-07-06T10:29:14;4.97;;;1.00;;
21894;SDS011;11112;51.270;7.224;2022-07-06T10:31:43;6.60;;;1.00;;
21894;SDS011;11112;51.270;7.224;2022-07-06T10:34:13;2.83;;;0.80;;
21894;SDS011;11112;51.270;7.224;2022-07-06T10:36:51;3.75;;;0.80;;
21894;SDS011;11112;51.270;7.224;2022-07-06T10:39:31;2.70;;;0.73;;
21894;SDS011;11112;51.270;7.224;2022-07-06T10:45:10;3.00;;;0.77;;
21894;SDS011;11112;51.270;7.224;2022-07-06T10:47:45;3.60;;;0.70;;
21894;SDS011;11112;51.270;7.224;2022-07-06T10:50:12;2.33;;;0.60;;
21894;SDS011;11112;51.270;7.224;2022-07-06T10:52:51;2.05;;;0.80;;
21894;SDS011;11112;51.270;7.224;2022-07-06T10:55:30;3.38;;;0.70;;
21894;SDS011;11112;51.270;7.224;2022-07-06T10:58:00;3.25;;;0.63;;
21894;SDS011;11112;51.270;7.224;2022-07-06T11:00:47;3.38;;;0.80;;
21894;SDS011;11112;51.270;7.224;2022-07-06T11:03:32;4.95;;;0.70;;
21894;SDS011;11112;51.270;7.224;2022-07-06T11:06:06;3.45;;;0.90;;
21894;SDS011;11112;51.270;7.224;2022-07-06T11:08:44;3.63;;;0.80;;
21894;SDS011;11112;51.270;7.224;2022-07-06T11:11:22;4.32;;;1.00;;
21894;SDS011;11112;51.270;7.224;2022-07-06T11:13:55;13.27;;;1.20;;
21894;SDS011;11112;51.270;7.224;2022-07-06T11:16:27;10.48;;;1.13;;
21894;SDS011;11112;51.270;7.224;2022-07-06T11:19:03;10.38;;;1.00;;
21894;SDS011;11112;51.270;7.224;2022-07-06T11:21:36;6.03;;;1.15;;
21894;SDS011;11112;51.270;7.224;2022-07-06T11:24:08;8.20;;;1.00;;
21894;SDS011;11112;51.270;7.224;2022-07-06T11:26:37;4.20;;;0.93;;
21894;SDS011;11112;51.270;7.224;2022-07-06T11:29:05;2.92;;;0.80;;
21894;SDS011;11112;51.270;7.224;2022-07-06T11:31:36;2.17;;;0.70;;
21894;SDS011;11112;51.270;7.224;2022-07-06T11:34:06;3.83;;;0.73;;
21894;SDS011;11112;51.270;7.224;2022-07-06T11:36:35;3.35;;;0.80;;
21894;SDS011;11112;51.270;7.224;2022-07-06T11:39:04;2.75;;;0.80;;
21894;SDS011;11112;51.270;7.224;2022-07-06T11:41:34;2.70;;;0.88;;
21894;SDS011;11112;51.270;7.224;2022-07-06T11:44:02;6.32;;;0.90;;
21894;SDS011;11112;51.270;7.224;2022-07-06T11:46:31;3.97;;;0.80;;
21894;SDS011;11112;51.270;7.224;2022-07-06T11:49:00;2.70;;;0.80;;
21894;SDS011;11112;51.270;7.224;2022-07-06T11:51:31;3.35;;;0.90;;
21894;SDS011;11112;51.270;7.224;2022-07-06T11:54:01;2.15;;;0.70;;
21894;SDS011;11112;51.270;7.224;2022-07-06T11:56:37;5.97;;;1.00;;
21894;SDS011;11112;51.270;7.224;2022-07-06T11:59:06;3.92;;;0.60;;
21894;SDS011;11112;51.270;7.224;2022-07-06T12:01:34;6.18;;;0.90;;
21894;SDS011;11112;51.270;7.224;2022-07-06T12:04:06;6.00;;;1.00;;
21894;SDS011;11112;51.270;7.224;2022-07-06T12:06:34;7.00;;;0.90;;
21894;SDS011;11112;51.270;7.224;2022-07-06T12:09:01;4.28;;;0.80;;
21894;SDS011;11112;51.270;7.224;2022-07-06T12:11:31;3.47;;;1.00;;
21894;SDS011;11112;51.270;7.224;2022-07-06T12:14:02;3.70;;;1.25;;
21894;SDS011;11112;51.270;7.224;2022-07-06T12:16:40;5.10;;;2.05;;
21894;SDS011;11112;51.270;7.224;2022-07-06T12:19:07;6.60;;;1.80;;
21894;SDS011;11112;51.270;7.224;2022-07-06T12:21:36;8.98;;;1.85;;
21894;SDS011;11112;51.270;7.224;2022-07-06T12:24:16;7.55;;;1.70;;
21894;SDS011;11112;51.270;7.224;2022-07-06T12:26:45;8.73;;;1.50;;
21894;SDS011;11112;51.270;7.224;2022-07-06T12:29:13;10.32;;;1.40;;
21894;SDS011;11112;51.270;7.224;2022-07-06T12:31:42;8.18;;;1.25;;
21894;SDS011;11112;51.270;7.224;2022-07-06T12:34:14;14.30;;;1.58;;
21894;SDS011;11112;51.270;7.224;2022-07-06T12:36:43;4.18;;;1.30;;
21894;SDS011;11112;51.270;7.224;2022-07-06T12:39:12;7.80;;;1.00;;
21894;SDS011;11112;51.270;7.224;2022-07-06T12:41:43;2.95;;;0.90;;
21894;SDS011;11112;51.270;7.224;2022-07-06T12:44:15;4.38;;;1.08;;
21894;SDS011;11112;51.270;7.224;2022-07-06T12:46:44;5.38;;;1.00;;
21894;SDS011;11112;51.270;7.224;2022-07-06T12:49:17;6.72;;;1.15;;
21894;SDS011;11112;51.270;7.224;2022-07-06T12:51:48;5.28;;;1.20;;
21894;SDS011;11112;51.270;7.224;2022-07-06T12:54:20;5.78;;;0.90;;
21894;SDS011;11112;51.270;7.224;2022-07-06T12:56:58;5.88;;;0.93;;
21894;SDS011;11112;51.270;7.224;2022-07-06T12:59:35;5.72;;;0.95;;
21894;SDS011;11112;51.270;7.224;2022-07-06T13:02:04;6.95;;;0.90;;
21894;SDS011;11112;51.270;7.224;2022-07-06T13:04:34;4.85;;;0.73;;
21894;SDS011;11112;51.270;7.224;2022-07-06T13:07:02;5.45;;;1.10;;
21894;SDS011;11112;51.270;7.224;2022-07-06T13:09:30;4.85;;;1.23;;
21894;SDS011;11112;51.270;7.224;2022-07-06T13:11:57;5.80;;;1.30;;
21894;SDS011;11112;51.270;7.224;2022-07-06T13:14:24;6.28;;;1.15;;
21894;SDS011;11112;51.270;7.224;2022-07-06T13:16:53;6.05;;;1.02;;
21894;SDS011;11112;51.270;7.224;2022-07-06T13:19:20;3.47;;;1.10;;
21894;SDS011;11112;51.270;7.224;2022-07-06T13:21:47;5.43;;;1.50;;
21894;SDS011;11112;51.270;7.224;2022-07-06T13:24:15;5.68;;;1.15;;
21894;SDS011;11112;51.270;7.224;2022-07-06T13:26:42;3.05;;;0.90;;
21894;SDS011;11112;51.270;7.224;2022-07-06T13:29:09;8.18;;;3.33;;
21894;SDS011;11112;51.270;7.224;2022-07-06T13:31:37;6.50;;;1.25;;
21894;SDS011;11112;51.270;7.224;2022-07-06T13:34:07;4.68;;;1.60;;
21894;SDS011;11112;51.270;7.224;2022-07-06T13:36:34;3.92;;;1.60;;
21894;SDS011;11112;51.270;7.224;2022-07-06T13:39:01;8.52;;;1.00;;
21894;SDS011;11112;51.270;7.224;2022-07-06T13:41:29;5.30;;;1.40;;
21894;SDS011;11112;51.270;7.224;2022-07-06T13:43:57;4.38;;;1.10;;
21894;SDS011;11112;51.270;7.224;2022-07-06T13:46:25;3.97;;;1.20;;
21894;SDS011;11112;51.270;7.224;2022-07-06T13:48:53;4.95;;;1.45;;
21894;SDS011;11112;51.270;7.224;2022-07-06T13:51:22;2.25;;;0.93;;
21894;SDS011;11112;51.270;7.224;2022-07-06T13:53:51;5.53;;;1.00;;
21894;SDS011;11112;51.270;7.224;2022-07-06T13:56:19;10.88;;;1.17;;
21894;SDS011;11112;51.270;7.224;2022-07-06T13:58:46;4.57;;;1.20;;
21894;SDS011;11112;51.270;7.224;2022-07-06T14:01:13;3.80;;;1.17;;
21894;SDS011;11112;51.270;7.224;2022-07-06T14:03:41;3.75;;;0.98;;
21894;SDS011;11112;51.270;7.224;2022-07-06T14:06:08;3.25;;;0.85;;
21894;SDS011;11112;51.270;7.224;2022-07-06T14:08:37;6.05;;;1.40;;
21894;SDS011;11112;51.270;7.224;2022-07-06T14:11:06;2.92;;;1.10;;
21894;SDS011;11112;51.270;7.224;2022-07-06T14:13:34;5.00;;;1.02;;
21894;SDS011;11112;51.270;7.224;2022-07-06T14:16:02;4.30;;;0.90;;
21894;SDS011;11112;51.270;7.224;2022-07-06T14:18:30;4.85;;;0.80;;
21894;SDS011;11112;51.270;7.224;2022-07-06T14:20:58;3.75;;;0.80;;
21894;SDS011;11112;51.270;7.224;2022-07-06T14:23:26;3.70;;;0.80;;
21894;SDS011;11112;51.270;7.224;2022-07-06T14:25:56;4.35;;;0.80;;
21894;SDS011;11112;51.270;7.224;2022-07-06T14:28:24;3.88;;;1.05;;
21894;SDS011;11112;51.270;7.224;2022-07-06T14:30:51;2.38;;;1.00;;
21894;SDS011;11112;51.270;7.224;2022-07-06T14:33:18;3.78;;;0.93;;
21894;SDS011;11112;51.270;7.224;2022-07-06T14:35:46;7.20;;;1.60;;
21894;SDS011;11112;51.270;7.224;2022-07-06T14:38:15;3.40;;;0.80;;
21894;SDS011;11112;51.270;7.224;2022-07-06T14:40:44;5.05;;;1.10;;
21894;SDS011;11112;51.270;7.224;2022-07-06T14:43:14;3.72;;;0.90;;
21894;SDS011;11112;51.270;7.224;2022-07-06T14:45:42;3.70;;;0.82;;
21894;SDS011;11112;51.270;7.224;2022-07-06T14:48:10;3.83;;;1.40;;
21894;SDS011;11112;51.270;7.224;2022-07-06T14:50:38;7.40;;;1.60;;
21894;SDS011;11112;51.270;7.224;2022-07-06T14:53:05;4.95;;;1.30;;
21894;SDS011;11112;51.270;7.224;2022-07-06T14:55:32;8.95;;;1.13;;
21894;SDS011;11112;51.270;7.224;2022-07-06T14:57:59;3.30;;;1.00;;
21894;SDS011;11112;51.270;7.224;2022-07-06T15:00:28;4.68;;;1.45;;
21894;SDS011;11112;51.270;7.224;2022-07-06T15:02:55;4.82;;;1.27;;
21894;SDS011;11112;51.270;7.224;2022-07-06T15:05:22;2.47;;;1.15;;
21894;SDS011;11112;51.270;7.224;2022-07-06T15:07:49;5.82;;;1.48;;
21894;SDS011;11112;51.270;7.224;2022-07-06T15:10:16;5.78;;;1.20;;
21894;SDS011;11112;51.270;7.224;2022-07-06T15:12:44;4.30;;;1.30;;
21894;SDS011;11112;51.270;7.224;2022-07-06T15:15:12;2.63;;;0.90;;